Time;durP1;ratioP1;P1;durP2;ratioP2;P2;SDS_P1;SDS_P2;PMS_P1;PMS_P2;Temp;Humidity;BMP_temperature;BMP_pressure;BME280_temperature;BME280_humidity;BME280_pressure;Samples;Min_cycle;Max_cycle;Signal;HPM_P1;HPM_P2
2023/12/13 00:01:20;;;;;;;14.40;5.90;;;;;;;-145.18;100.00;46654.53;5086987;28;20024;-74
2023/12/13 00:03:46;;;;;;;11.83;6.93;;;;;;;-145.18;100.00;46660.41;5076752;28;20273;-74
2023/12/13 00:06:11;;;;;;;13.27;6.13;;;;;;;-145.18;100.00;46658.44;5082762;28;20128;-74
2023/12/13 00:08:36;;;;;;;12.03;6.77;;;;;;;-145.18;100.00;46656.50;5091598;28;20484;-75
2023/12/13 00:11:03;;;;;;;17.20;5.63;;;;;;;-145.18;100.00;46660.41;5084310;28;20112;-75
2023/12/13 00:13:28;;;;;;;11.97;5.93;;;;;;;-145.18;100.00;46662.34;5092955;28;20083;-75
2023/12/13 00:15:53;;;;;;;13.10;5.57;;;;;;;-145.18;100.00;46664.31;5087517;28;20372;-75
2023/12/13 00:18:19;;;;;;;9.17;5.73;;;;;;;-145.18;100.00;46660.41;5074703;28;20041;-74
2023/12/13 00:20:44;;;;;;;12.07;5.37;;;;;;;-145.18;100.00;46664.31;5081979;28;20028;-74
2023/12/13 00:23:10;;;;;;;12.50;5.40;;;;;;;-145.18;100.00;46660.41;5081523;28;20039;-75
2023/12/13 00:25:35;;;;;;;9.70;4.97;;;;;;;-145.18;100.00;46662.34;5088879;28;20472;-75
2023/12/13 00:28:00;;;;;;;7.93;5.30;;;;;;;-145.18;100.00;46664.31;5088635;28;20422;-75
2023/12/13 00:30:26;;;;;;;11.90;5.63;;;;;;;-145.18;100.00;46664.31;5076000;28;20028;-75
2023/12/13 00:32:51;;;;;;;10.70;5.07;;;;;;;-145.18;100.00;46664.31;5091727;28;20096;-75
2023/12/13 00:35:16;;;;;;;11.53;5.07;;;;;;;-145.18;100.00;46666.25;5102746;28;20042;-74
2023/12/13 00:37:42;;;;;;;13.30;5.50;;;;;;;-145.18;100.00;46664.31;5093876;28;20070;-75
2023/12/13 00:40:08;;;;;;;11.23;5.47;;;;;;;-145.18;100.00;46660.41;5087693;28;20032;-75
2023/12/13 00:42:33;;;;;;;12.40;6.03;;;;;;;-145.18;100.00;46660.41;5075699;28;20485;-76
2023/12/13 00:44:58;;;;;;;15.90;6.07;;;;;;;-145.18;100.00;46666.25;5080862;28;20063;-74
2023/12/13 00:47:24;;;;;;;11.13;5.60;;;;;;;-145.18;100.00;46662.34;5081275;28;20032;-75
2023/12/13 00:49:49;;;;;;;9.63;5.53;;;;;;;-145.18;100.00;46662.34;5074589;28;20396;-74
2023/12/13 00:52:14;;;;;;;9.80;5.10;;;;;;;-145.18;100.00;46668.22;5074849;28;20036;-75
2023/12/13 00:54:40;;;;;;;9.17;5.60;;;;;;;-145.18;100.00;46660.41;5077228;28;20021;-75
2023/12/13 00:57:07;;;;;;;11.33;5.07;;;;;;;-145.18;100.00;46666.25;5080703;28;20503;-75
2023/12/13 00:59:32;;;;;;;10.87;5.17;;;;;;;-145.18;100.00;46668.22;5080497;28;20024;-75
2023/12/13 01:01:58;;;;;;;17.63;5.83;;;;;;;-145.18;100.00;46668.22;5080669;28;20258;-75
2023/12/13 01:04:23;;;;;;;9.77;4.80;;;;;;;-145.18;100.00;46666.25;5093439;28;20089;-75
2023/12/13 01:06:48;;;;;;;7.83;4.27;;;;;;;-145.18;100.00;46660.41;5081273;28;20396;-75
2023/12/13 01:09:14;;;;;;;10.33;4.70;;;;;;;-145.18;100.00;46662.34;5072983;28;20032;-75
2023/12/13 01:11:39;;;;;;;15.73;4.90;;;;;;;-145.18;100.00;46664.31;5074269;28;20045;-75
2023/12/13 01:14:05;;;;;;;10.80;4.27;;;;;;;-145.18;100.00;46666.25;5087068;28;20059;-75
2023/12/13 01:16:30;;;;;;;7.10;4.00;;;;;;;-145.18;100.00;46664.31;5088625;28;20097;-75
2023/12/13 01:18:55;;;;;;;16.70;4.43;;;;;;;-145.18;100.00;46674.06;5079982;28;20032;-76
2023/12/13 01:21:21;;;;;;;8.47;3.97;;;;;;;-145.18;100.00;46676.03;5094016;28;20162;-73
2023/12/13 01:23:47;;;;;;;8.60;3.60;;;;;;;-145.18;100.00;46664.31;5073711;28;20488;-74
2023/12/13 01:26:12;;;;;;;11.60;3.70;;;;;;;-145.18;100.00;46666.25;5088693;28;20484;-75
2023/12/13 01:28:37;;;;;;;13.80;3.20;;;;;;;-145.18;100.00;46668.22;5076560;28;20032;-75
2023/12/13 01:31:07;;;;;;;9.33;2.70;;;;;;;-145.18;100.00;46666.25;5096693;28;20122;-75
2023/12/13 01:33:33;;;;;;;10.97;3.07;;;;;;;-145.18;100.00;46664.31;5076372;28;20028;-75
2023/12/13 01:36:01;;;;;;;7.90;3.00;;;;;;;-145.18;100.00;46666.25;5097456;28;20276;-75
2023/12/13 01:38:27;;;;;;;7.33;2.87;;;;;;;-145.18;100.00;46668.22;5087871;28;20081;-75
2023/12/13 01:40:53;;;;;;;9.73;3.27;;;;;;;-145.18;100.00;46670.16;5080192;28;20340;-76
2023/12/13 01:43:23;;;;;;;9.37;3.57;;;;;;;-145.18;100.00;46670.16;5088200;28;20029;-75
2023/12/13 01:45:50;;;;;;;9.40;3.60;;;;;;;-145.18;100.00;46668.22;5086255;28;20625;-75
2023/12/13 01:48:16;;;;;;;8.23;3.20;;;;;;;-145.18;100.00;46668.22;5076562;28;20353;-74
2023/12/13 01:50:41;;;;;;;10.90;3.23;;;;;;;-145.18;100.00;46672.13;5077284;28;20272;-75
2023/12/13 01:53:07;;;;;;;8.83;3.37;;;;;;;-145.18;100.00;46674.06;5080410;28;20115;-75
2023/12/13 01:55:32;;;;;;;12.30;3.40;;;;;;;-145.18;100.00;46670.16;5081798;28;20041;-75
2023/12/13 01:57:58;;;;;;;6.80;3.17;;;;;;;-145.18;100.00;46670.16;5075406;28;20031;-75
2023/12/13 02:00:23;;;;;;;8.67;3.60;;;;;;;-145.18;100.00;46668.22;5089296;28;20085;-75
2023/12/13 02:02:49;;;;;;;8.60;3.50;;;;;;;-145.18;100.00;46672.13;5090209;28;20028;-75
2023/12/13 02:05:16;;;;;;;13.00;4.57;;;;;;;-145.18;100.00;46672.13;5092911;28;20040;-75
2023/12/13 02:07:42;;;;;;;8.40;3.77;;;;;;;-145.18;100.00;46676.03;5087780;28;20265;-75
2023/12/13 02:10:08;;;;;;;8.27;3.83;;;;;;;-145.18;100.00;46666.25;5072604;28;20257;-74
2023/12/13 02:12:34;;;;;;;6.50;3.73;;;;;;;-145.18;100.00;46668.22;5078457;28;20038;-74
2023/12/13 02:15:00;;;;;;;7.23;3.47;;;;;;;-145.18;100.00;46670.16;5089531;28;20406;-75
2023/12/13 02:17:26;;;;;;;8.57;4.20;;;;;;;-145.18;100.00;46668.22;5072273;28;20753;-74
2023/12/13 02:19:51;;;;;;;8.73;4.33;;;;;;;-145.18;100.00;46666.25;5084109;28;20043;-74
2023/12/13 02:22:16;;;;;;;7.87;4.37;;;;;;;-145.18;100.00;46668.22;5087254;28;20123;-75
2023/12/13 02:24:44;;;;;;;11.40;4.73;;;;;;;-145.18;100.00;46668.22;5073604;28;20089;-76
2023/12/13 02:27:09;;;;;;;10.67;5.80;;;;;;;-145.18;100.00;46666.25;5079162;28;20534;-75
2023/12/13 02:29:35;;;;;;;12.27;4.87;;;;;;;-145.18;100.00;46670.16;5073037;28;20269;-75
2023/12/13 02:32:00;;;;;;;14.97;5.50;;;;;;;-145.18;100.00;46664.31;5078402;28;20516;-74
2023/12/13 02:34:25;;;;;;;12.23;6.27;;;;;;;-145.18;100.00;46668.22;5078718;28;20047;-74
2023/12/13 02:36:51;;;;;;;15.50;7.13;;;;;;;-145.18;100.00;46664.31;5072660;28;20476;-75
2023/12/13 02:39:16;;;;;;;9.73;6.40;;;;;;;-145.18;100.00;46668.22;5083240;28;20073;-75
2023/12/13 02:41:42;;;;;;;12.93;6.37;;;;;;;-145.18;100.00;46664.31;5086104;28;20029;-74
2023/12/13 02:44:07;;;;;;;18.33;7.33;;;;;;;-145.18;100.00;46660.41;5074231;28;20092;-75
2023/12/13 02:46:32;;;;;;;14.40;6.83;;;;;;;-145.18;100.00;46666.25;5082884;28;20035;-75
2023/12/13 02:48:58;;;;;;;12.33;7.20;;;;;;;-145.18;100.00;46666.25;5085394;28;20053;-75
2023/12/13 02:51:24;;;;;;;15.53;7.37;;;;;;;-145.18;100.00;46666.25;5091349;28;20031;-74
2023/12/13 02:53:49;;;;;;;16.33;7.53;;;;;;;-145.18;100.00;46664.31;5079020;28;20279;-75
2023/12/13 02:56:14;;;;;;;10.03;7.03;;;;;;;-145.18;100.00;46666.25;5078687;28;20035;-74
2023/12/13 02:58:40;;;;;;;14.97;7.43;;;;;;;-145.18;100.00;46666.25;5079321;28;20114;-74
2023/12/13 03:01:06;;;;;;;16.47;8.67;;;;;;;-145.18;100.00;46664.31;5091903;28;20023;-75
2023/12/13 03:03:31;;;;;;;15.30;7.87;;;;;;;-145.18;100.00;46670.16;5075066;28;20409;-76
2023/12/13 03:05:57;;;;;;;15.10;7.63;;;;;;;-145.18;100.00;46664.31;5091941;28;20101;-75
2023/12/13 03:08:22;;;;;;;18.67;8.43;;;;;;;-145.18;100.00;46672.13;5075205;28;20032;-74
2023/12/13 03:10:47;;;;;;;17.70;7.47;;;;;;;-145.18;100.00;46666.25;5079508;28;20115;-75
2023/12/13 03:13:13;;;;;;;14.30;7.40;;;;;;;-145.18;100.00;46664.31;5072043;28;20032;-75
2023/12/13 03:15:38;;;;;;;13.93;7.57;;;;;;;-145.18;100.00;46666.25;5078946;28;20059;-74
2023/12/13 03:18:04;;;;;;;15.33;8.27;;;;;;;-145.18;100.00;46672.13;5090355;28;20101;-74
2023/12/13 03:20:30;;;;;;;18.50;7.63;;;;;;;-145.18;100.00;46664.31;5081067;28;20114;-75
2023/12/13 03:22:56;;;;;;;15.00;7.13;;;;;;;-145.18;100.00;46662.34;5083817;28;20600;-74
2023/12/13 03:25:21;;;;;;;11.73;7.60;;;;;;;-145.18;100.00;46660.41;5085170;28;20311;-75
2023/12/13 03:27:46;;;;;;;21.77;7.67;;;;;;;-145.18;100.00;46662.34;5098748;28;20032;-75
2023/12/13 03:30:12;;;;;;;15.23;7.33;;;;;;;-145.18;100.00;46662.34;5085860;28;20041;-75
2023/12/13 03:32:41;;;;;;;17.77;7.70;;;;;;;-145.18;100.00;46660.41;5076278;28;20377;-75
2023/12/13 03:35:07;;;;;;;21.03;7.67;;;;;;;-145.18;100.00;46660.41;5085249;28;20021;-75
2023/12/13 03:37:33;;;;;;;18.50;7.63;;;;;;;-145.18;100.00;46660.41;5070170;28;20649;-75
2023/12/13 03:39:59;;;;;;;16.30;7.70;;;;;;;-145.18;100.00;46658.44;5074775;28;20028;-75
2023/12/13 03:42:24;;;;;;;18.97;8.07;;;;;;;-145.18;100.00;46658.44;5071941;28;20830;-74
2023/12/13 03:44:49;;;;;;;15.87;7.40;;;;;;;-145.18;100.00;46660.41;5085346;28;20032;-75
2023/12/13 03:47:15;;;;;;;14.80;7.40;;;;;;;-145.18;100.00;46662.34;5088294;28;20107;-74
2023/12/13 03:49:40;;;;;;;16.23;7.80;;;;;;;-145.18;100.00;46662.34;5078443;28;20024;-76
2023/12/13 03:52:07;;;;;;;14.63;7.67;;;;;;;-145.18;100.00;46658.44;5087736;28;20051;-75
2023/12/13 03:54:33;;;;;;;18.37;7.87;;;;;;;-145.18;100.00;46658.44;5080469;28;20035;-75
2023/12/13 03:56:58;;;;;;;16.90;7.67;;;;;;;-145.18;100.00;46656.50;5073060;28;20285;-74
2023/12/13 03:59:23;;;;;;;15.23;7.17;;;;;;;-145.18;100.00;46664.31;5073692;28;20032;-74
2023/12/13 04:01:49;;;;;;;17.70;7.30;;;;;;;-145.18;100.00;46664.31;5084543;28;20527;-75
2023/12/13 04:04:14;;;;;;;15.77;7.20;;;;;;;-145.18;100.00;46662.34;5077540;28;20028;-75
2023/12/13 04:06:40;;;;;;;19.33;7.23;;;;;;;-145.18;100.00;46660.41;5081759;28;20035;-76
2023/12/13 04:09:05;;;;;;;16.13;7.90;;;;;;;-145.18;100.00;46660.41;5091580;28;20032;-76
2023/12/13 04:11:30;;;;;;;15.07;7.10;;;;;;;-145.18;100.00;46660.41;5078755;28;20064;-75
2023/12/13 04:13:56;;;;;;;15.23;7.83;;;;;;;-145.18;100.00;46660.41;5090140;28;20051;-74
2023/12/13 04:16:21;;;;;;;17.23;7.17;;;;;;;-145.18;100.00;46658.44;5078964;28;20036;-75
2023/12/13 04:18:47;;;;;;;20.90;7.60;;;;;;;-145.18;100.00;46654.53;5070133;28;20040;-74
2023/12/13 04:21:12;;;;;;;18.97;8.37;;;;;;;-145.18;100.00;46654.53;5071733;28;20059;-75
2023/12/13 04:23:38;;;;;;;18.73;7.23;;;;;;;-145.18;100.00;46658.44;5078251;28;20036;-74
2023/12/13 04:26:03;;;;;;;17.20;7.97;;;;;;;-145.18;100.00;46654.53;5053093;28;20132;-74
2023/12/13 04:28:29;;;;;;;19.80;7.10;;;;;;;-145.18;100.00;46656.50;5075799;28;20035;-75
2023/12/13 04:30:54;;;;;;;15.93;6.53;;;;;;;-145.18;100.00;46658.44;5083175;28;20032;-75
2023/12/13 04:33:19;;;;;;;14.00;6.37;;;;;;;-145.18;100.00;46660.41;5079548;28;20413;-75
2023/12/13 04:35:46;;;;;;;16.03;7.07;;;;;;;-145.18;100.00;46656.50;5074865;28;20032;-75
2023/12/13 04:38:11;;;;;;;14.33;6.43;;;;;;;-145.18;100.00;46654.53;5077674;28;20549;-75
2023/12/13 04:40:37;;;;;;;17.23;6.77;;;;;;;-145.18;100.00;46662.34;5079627;28;20281;-74
2023/12/13 04:43:03;;;;;;;13.80;6.10;;;;;;;-145.18;100.00;46658.44;5087508;28;20472;-75
2023/12/13 04:45:28;;;;;;;19.73;6.47;;;;;;;-145.18;100.00;46656.50;5083468;28;20500;-75
2023/12/13 04:47:54;;;;;;;18.07;6.20;;;;;;;-145.18;100.00;46654.53;5089259;28;20030;-75
2023/12/13 04:50:20;;;;;;;20.60;6.50;;;;;;;-145.18;100.00;46658.44;5093893;28;20494;-75
2023/12/13 04:52:45;;;;;;;17.97;6.20;;;;;;;-145.18;100.00;46658.44;5079850;28;20253;-75
2023/12/13 04:55:11;;;;;;;17.40;6.03;;;;;;;-145.18;100.00;46660.41;5093415;28;20036;-75
2023/12/13 04:57:36;;;;;;;13.13;6.20;;;;;;;-145.18;100.00;46660.41;5081076;28;20047;-75
2023/12/13 05:00:04;;;;;;;13.93;6.17;;;;;;;-145.18;100.00;46662.34;5089593;28;20498;-75
2023/12/13 05:02:29;;;;;;;13.30;5.93;;;;;;;-145.18;100.00;46660.41;5091158;28;20106;-75
2023/12/13 05:04:54;;;;;;;13.20;5.97;;;;;;;-145.18;100.00;46660.41;5100188;28;20749;-76
2023/12/13 05:07:20;;;;;;;16.23;5.50;;;;;;;-145.18;100.00;46658.44;5086305;28;20052;-74
2023/12/13 05:09:46;;;;;;;17.33;5.70;;;;;;;-145.18;100.00;46656.50;5090226;28;20020;-74
2023/12/13 05:12:11;;;;;;;12.57;5.33;;;;;;;-145.18;100.00;46664.31;5085980;28;20458;-75
2023/12/13 05:14:37;;;;;;;10.67;5.17;;;;;;;-145.18;100.00;46658.44;5085014;28;20170;-74
2023/12/13 05:17:03;;;;;;;13.83;5.80;;;;;;;-145.18;100.00;46660.41;5087226;28;20542;-76
2023/12/13 05:19:28;;;;;;;18.60;6.23;;;;;;;-145.18;100.00;46662.34;5084980;28;20070;-75
2023/12/13 05:21:53;;;;;;;16.43;5.77;;;;;;;-145.18;100.00;46656.50;5087733;28;20097;-74
2023/12/13 05:24:19;;;;;;;15.20;5.77;;;;;;;-145.18;100.00;46660.41;5086969;28;20040;-75
2023/12/13 05:26:44;;;;;;;16.97;6.80;;;;;;;-145.18;100.00;46666.25;5074275;28;20039;-75
2023/12/13 05:29:10;;;;;;;10.73;4.73;;;;;;;-145.18;100.00;46662.34;5086671;28;20032;-74
2023/12/13 05:31:35;;;;;;;13.07;5.43;;;;;;;-145.18;100.00;46660.41;5079134;28;20034;-75
2023/12/13 05:34:01;;;;;;;16.77;5.30;;;;;;;-145.18;100.00;46664.31;5091970;28;20032;-75
2023/12/13 05:36:28;;;;;;;19.57;5.00;;;;;;;-145.18;100.00;46660.41;5086773;28;20024;-75
2023/12/13 05:38:53;;;;;;;15.57;5.30;;;;;;;-145.18;100.00;46664.31;5082417;28;20031;-74
2023/12/13 05:41:19;;;;;;;15.33;5.90;;;;;;;-145.18;100.00;46666.25;5084857;28;20726;-75
2023/12/13 05:43:44;;;;;;;17.50;5.50;;;;;;;-145.18;100.00;46662.34;5088551;28;20036;-75
2023/12/13 05:46:10;;;;;;;12.90;5.33;;;;;;;-145.18;100.00;46658.44;5076407;28;20037;-75
2023/12/13 05:48:35;;;;;;;16.43;5.63;;;;;;;-145.18;100.00;46660.41;5081323;28;20024;-75
2023/12/13 05:51:00;;;;;;;15.20;5.83;;;;;;;-145.18;100.00;46654.53;5085025;28;20039;-74
2023/12/13 05:53:27;;;;;;;17.93;6.00;;;;;;;-145.18;100.00;46652.59;5083745;28;20033;-76
2023/12/13 05:55:53;;;;;;;21.33;5.40;;;;;;;-145.18;100.00;46660.41;5073310;28;20029;-74
2023/12/13 05:58:18;;;;;;;19.67;5.07;;;;;;;-145.18;100.00;46660.41;5073131;28;20288;-76
2023/12/13 06:00:44;;;;;;;18.63;6.63;;;;;;;-145.18;100.00;46662.34;5079630;28;20563;-74
2023/12/13 06:03:09;;;;;;;17.43;5.17;;;;;;;-145.18;100.00;46664.31;5079073;28;20027;-75
2023/12/13 06:05:35;;;;;;;16.27;5.97;;;;;;;-145.18;100.00;46658.44;5072254;28;20194;-75
2023/12/13 06:08:01;;;;;;;19.03;6.43;;;;;;;-145.18;100.00;46662.34;5087331;28;20608;-74
2023/12/13 06:10:26;;;;;;;20.90;7.57;;;;;;;-145.18;100.00;46664.31;5088134;28;20117;-75
2023/12/13 06:12:52;;;;;;;17.30;5.90;;;;;;;-145.18;100.00;46662.34;5082395;28;20524;-75
2023/12/13 06:15:18;;;;;;;15.07;6.23;;;;;;;-145.18;100.00;46660.41;5088066;28;20058;-75
2023/12/13 06:17:44;;;;;;;22.90;7.60;;;;;;;-145.18;100.00;46664.31;5079871;28;20284;-75
2023/12/13 06:20:10;;;;;;;16.50;6.63;;;;;;;-145.18;100.00;46660.41;5088098;28;20268;-74
2023/12/13 06:22:36;;;;;;;19.17;7.37;;;;;;;-145.18;100.00;46664.31;5086539;28;20047;-75
2023/12/13 06:25:02;;;;;;;20.10;8.03;;;;;;;-145.18;100.00;46658.44;5080813;28;20257;-75
2023/12/13 06:27:28;;;;;;;14.77;7.70;;;;;;;-145.18;100.00;46662.34;5079420;28;20043;-74
2023/12/13 06:29:53;;;;;;;14.87;6.33;;;;;;;-145.18;100.00;46660.41;5079713;28;20254;-75
2023/12/13 06:32:19;;;;;;;19.50;7.67;;;;;;;-145.18;100.00;46666.25;5078662;28;20404;-75
2023/12/13 06:34:45;;;;;;;23.43;7.90;;;;;;;-145.18;100.00;46664.31;5072912;28;20025;-75
2023/12/13 06:37:10;;;;;;;15.33;7.30;;;;;;;-145.18;100.00;46660.41;5087004;28;20289;-75
2023/12/13 06:39:37;;;;;;;25.33;7.43;;;;;;;-145.18;100.00;46662.34;5080516;28;20146;-75
2023/12/13 06:42:04;;;;;;;18.27;7.20;;;;;;;-145.18;100.00;46660.41;5081412;28;20369;-75
2023/12/13 06:44:29;;;;;;;16.67;7.17;;;;;;;-145.18;100.00;46660.41;5089960;28;20256;-75
2023/12/13 06:46:55;;;;;;;17.40;6.83;;;;;;;-145.18;100.00;46656.50;5072265;28;20270;-75
2023/12/13 06:49:22;;;;;;;23.37;7.33;;;;;;;-145.18;100.00;46656.50;5084845;28;20043;-74
2023/12/13 06:51:50;;;;;;;19.40;7.20;;;;;;;-145.18;100.00;46654.53;5080844;28;20096;-66
2023/12/13 06:54:15;;;;;;;20.37;7.37;;;;;;;-145.18;100.00;46660.41;5076498;28;20265;-66
2023/12/13 06:56:41;;;;;;;21.57;7.40;;;;;;;-145.18;100.00;46654.53;5071777;28;20261;-66
2023/12/13 06:59:07;;;;;;;20.80;7.27;;;;;;;-145.18;100.00;46654.53;5077615;28;20145;-66
2023/12/13 07:01:32;;;;;;;20.83;7.17;;;;;;;-145.18;100.00;46654.53;5080131;28;20036;-66
2023/12/13 07:03:58;;;;;;;21.37;6.80;;;;;;;-145.18;100.00;46656.50;5080874;28;20264;-66
2023/12/13 07:06:23;;;;;;;18.40;6.80;;;;;;;-145.18;100.00;46658.44;5084170;28;20066;-66
2023/12/13 07:08:48;;;;;;;21.53;7.57;;;;;;;-145.18;100.00;46658.44;5091940;28;20028;-66
2023/12/13 07:11:14;;;;;;;22.97;7.57;;;;;;;-145.18;100.00;46656.50;5079296;28;20062;-67
2023/12/13 07:13:40;;;;;;;22.03;7.30;;;;;;;-145.18;100.00;46656.50;5077919;28;20035;-66
2023/12/13 07:16:06;;;;;;;26.53;7.80;;;;;;;-145.18;100.00;46658.44;5079209;28;20359;-66
2023/12/13 07:18:31;;;;;;;19.20;6.13;;;;;;;-145.18;100.00;46660.41;5074787;28;20081;-66
2023/12/13 07:20:56;;;;;;;24.27;6.67;;;;;;;-145.18;100.00;46656.50;5087735;28;20066;-66
2023/12/13 07:23:25;;;;;;;17.60;6.00;;;;;;;-145.18;100.00;46656.50;5076819;28;20040;-66
2023/12/13 07:25:50;;;;;;;17.13;5.90;;;;;;;-145.18;100.00;46656.50;5072438;28;20064;-66
2023/12/13 07:28:16;;;;;;;20.77;6.40;;;;;;;-145.18;100.00;46652.59;5072096;28;20302;-66
2023/12/13 07:30:41;;;;;;;21.20;7.20;;;;;;;-145.18;100.00;46658.44;5087573;28;20111;-66
2023/12/13 07:33:09;;;;;;;19.80;6.73;;;;;;;-145.18;100.00;46656.50;5090211;28;20036;-67
2023/12/13 07:35:34;;;;;;;20.40;6.57;;;;;;;-145.18;100.00;46654.53;5077770;28;20055;-66
2023/12/13 07:38:00;;;;;;;14.93;6.80;;;;;;;-145.18;100.00;46654.53;5070174;28;20666;-66
2023/12/13 07:40:25;;;;;;;24.93;7.30;;;;;;;-145.18;100.00;46654.53;5074628;28;20066;-66
2023/12/13 07:42:50;;;;;;;17.17;6.73;;;;;;;-145.18;100.00;46660.41;5071686;28;20033;-66
2023/12/13 07:45:16;;;;;;;36.07;7.07;;;;;;;-145.18;100.00;46654.53;5071842;28;20093;-66
2023/12/13 07:47:43;;;;;;;20.47;6.83;;;;;;;-145.18;100.00;46658.44;5087012;28;20524;-66
2023/12/13 07:50:08;;;;;;;21.93;8.17;;;;;;;-145.18;100.00;46654.53;5072385;28;20028;-66
2023/12/13 07:52:34;;;;;;;20.43;7.77;;;;;;;-145.18;100.00;46652.59;5071711;28;20341;-66
2023/12/13 07:55:00;;;;;;;30.57;8.30;;;;;;;-145.18;100.00;46660.41;5071786;28;20128;-66
2023/12/13 07:57:25;;;;;;;22.00;7.50;;;;;;;-145.18;100.00;46654.53;5071595;28;20024;-66
2023/12/13 07:59:51;;;;;;;20.20;8.70;;;;;;;-145.18;100.00;46658.44;5077161;28;20028;-66
2023/12/13 08:02:20;;;;;;;18.20;7.67;;;;;;;-145.18;100.00;46658.44;5070077;28;20040;-74
2023/12/13 08:04:46;;;;;;;27.40;8.13;;;;;;;-145.18;100.00;46650.63;5071771;28;20042;-75
2023/12/13 08:07:11;;;;;;;21.70;7.47;;;;;;;-145.18;100.00;46656.50;5084995;28;20671;-74
2023/12/13 08:09:37;;;;;;;22.93;8.63;;;;;;;-145.18;100.00;46656.50;5108076;28;20295;-74
2023/12/13 08:12:02;;;;;;;22.43;7.93;;;;;;;-145.18;100.00;46660.41;5087639;28;20062;-74
2023/12/13 08:14:30;;;;;;;19.30;9.40;;;;;;;-145.18;100.00;46658.44;5075325;28;20143;-74
2023/12/13 08:16:57;;;;;;;21.47;8.13;;;;;;;-145.18;100.00;46656.50;5082543;28;20028;-74
2023/12/13 08:19:22;;;;;;;19.67;8.00;;;;;;;-145.18;100.00;46660.41;5089434;28;20340;-74
2023/12/13 08:21:49;;;;;;;24.43;8.83;;;;;;;-145.18;100.00;46654.53;5085030;28;20737;-74
2023/12/13 08:24:14;;;;;;;23.23;8.73;;;;;;;-145.18;100.00;46656.50;5076251;28;20039;-74
2023/12/13 08:26:39;;;;;;;17.13;8.70;;;;;;;-145.18;100.00;46654.53;5077930;28;20265;-74
2023/12/13 08:29:05;;;;;;;30.70;8.70;;;;;;;-145.18;100.00;46654.53;5088607;28;20039;-74
2023/12/13 08:31:31;;;;;;;19.43;9.37;;;;;;;-145.18;100.00;46654.53;5079138;28;20040;-74
2023/12/13 08:33:56;;;;;;;25.40;10.90;;;;;;;-145.18;100.00;46652.59;5079267;28;20418;-74
2023/12/13 08:36:22;;;;;;;26.47;10.00;;;;;;;-145.18;100.00;46658.44;5074250;28;20044;-74
2023/12/13 08:38:48;;;;;;;22.33;8.77;;;;;;;-145.18;100.00;46654.53;5075690;28;20039;-74
2023/12/13 08:41:14;;;;;;;27.33;11.57;;;;;;;-145.18;100.00;46654.53;5090565;28;20261;-74
2023/12/13 08:43:40;;;;;;;22.97;10.97;;;;;;;-145.18;100.00;46654.53;5081986;28;20055;-73
2023/12/13 08:46:06;;;;;;;27.03;11.30;;;;;;;-145.18;100.00;46648.69;5079311;28;20743;-75
2023/12/13 08:48:31;;;;;;;26.20;9.70;;;;;;;-145.18;100.00;46652.59;5075069;28;20029;-74
2023/12/13 08:50:58;;;;;;;29.03;10.70;;;;;;;-145.18;100.00;46658.44;5079654;28;20480;-74
2023/12/13 08:53:24;;;;;;;31.13;10.67;;;;;;;-145.18;100.00;46654.53;5093079;28;20031;-75
2023/12/13 08:55:49;;;;;;;31.40;10.70;;;;;;;-145.18;100.00;46656.50;5084384;28;20675;-75
2023/12/13 08:58:15;;;;;;;25.87;10.53;;;;;;;-145.18;100.00;46654.53;5075828;28;20372;-74
2023/12/13 09:00:40;;;;;;;22.97;9.73;;;;;;;-145.18;100.00;46650.63;5087914;28;20099;-74
2023/12/13 09:03:06;;;;;;;29.80;10.90;;;;;;;-145.18;100.00;46654.53;5086974;28;20042;-75
2023/12/13 09:05:31;;;;;;;26.07;10.47;;;;;;;-145.18;100.00;46660.41;5074816;28;20043;-75
2023/12/13 09:07:57;;;;;;;25.93;11.93;;;;;;;-145.18;100.00;46656.50;5074566;28;20089;-74
2023/12/13 09:10:22;;;;;;;28.07;10.33;;;;;;;-145.18;100.00;46656.50;5085332;28;20086;-75
2023/12/13 09:12:48;;;;;;;26.30;10.33;;;;;;;-145.18;100.00;46654.53;5086850;28;20047;-66
2023/12/13 09:15:17;;;;;;;26.10;10.03;;;;;;;-145.18;100.00;46654.53;5075796;28;20057;-66
2023/12/13 09:17:45;;;;;;;23.53;10.63;;;;;;;-145.18;100.00;46654.53;5074162;28;20447;-66
2023/12/13 09:20:14;;;;;;;26.30;9.97;;;;;;;-145.18;100.00;46652.59;5073513;28;20633;-66
2023/12/13 09:22:42;;;;;;;24.73;10.60;;;;;;;-145.18;100.00;46652.59;5074128;28;20752;-67
2023/12/13 09:25:09;;;;;;;22.63;10.37;;;;;;;-145.18;100.00;46652.59;5074487;28;20260;-66
2023/12/13 09:27:35;;;;;;;25.97;10.17;;;;;;;-145.18;100.00;46660.41;5075242;28;20081;-67
2023/12/13 09:30:01;;;;;;;23.83;10.50;;;;;;;-145.18;100.00;46656.50;5074277;28;20342;-66
2023/12/13 09:32:26;;;;;;;22.03;10.67;;;;;;;-145.18;100.00;46658.44;5083974;28;20300;-66
2023/12/13 09:34:52;;;;;;;25.30;12.57;;;;;;;-145.18;100.00;46660.41;5098674;28;20036;-66
2023/12/13 09:37:17;;;;;;;25.60;11.30;;;;;;;-145.18;100.00;46656.50;5074454;28;20404;-66
2023/12/13 09:39:45;;;;;;;24.93;10.10;;;;;;;-145.18;100.00;46654.53;5072559;28;20051;-66
2023/12/13 09:42:12;;;;;;;26.03;9.93;;;;;;;-145.18;100.00;46654.53;5074304;28;20037;-66
2023/12/13 09:44:39;;;;;;;22.37;10.33;;;;;;;-145.18;100.00;46654.53;5074310;28;20815;-66
2023/12/13 09:47:06;;;;;;;29.13;10.63;;;;;;;-145.18;100.00;46650.63;5085915;28;20052;-66
2023/12/13 09:49:36;;;;;;;25.10;10.93;;;;;;;-145.18;100.00;46652.59;5079000;28;20054;-67
2023/12/13 09:52:09;;;;;;;28.60;10.93;;;;;;;-145.18;100.00;46652.59;5080958;28;20031;-66
2023/12/13 09:54:39;;;;;;;25.30;10.23;;;;;;;-145.18;100.00;46652.59;5073883;28;20025;-65
2023/12/13 09:57:07;;;;;;;24.87;12.37;;;;;;;-145.18;100.00;46654.53;5073674;28;20033;-64
2023/12/13 09:59:33;;;;;;;26.27;10.33;;;;;;;-145.18;100.00;46648.69;5077053;28;20040;-65
2023/12/13 10:02:01;;;;;;;28.40;10.50;;;;;;;-145.18;100.00;46652.59;5072498;28;20032;-65
2023/12/13 10:04:28;;;;;;;29.90;10.83;;;;;;;-145.18;100.00;46650.63;5073916;28;20028;-65
2023/12/13 10:06:54;;;;;;;22.93;10.50;;;;;;;-145.18;100.00;46654.53;5073704;28;20025;-65
2023/12/13 10:09:19;;;;;;;27.60;10.07;;;;;;;-145.18;100.00;46650.63;5073673;28;20032;-65
2023/12/13 10:11:45;;;;;;;20.73;10.60;;;;;;;-145.18;100.00;46646.72;5074176;28;20074;-65
2023/12/13 10:14:11;;;;;;;32.97;10.43;;;;;;;-145.18;100.00;46642.81;5088317;28;20496;-65
2023/12/13 10:16:40;;;;;;;24.20;10.47;;;;;;;-145.18;100.00;46648.69;5072928;28;20052;-65
2023/12/13 10:19:06;;;;;;;27.40;10.80;;;;;;;-145.18;100.00;46646.72;5073415;28;20021;-65
2023/12/13 10:21:35;;;;;;;27.37;9.77;;;;;;;-145.18;100.00;46644.78;5073098;28;20040;-73
2023/12/13 10:24:03;;;;;;;27.57;10.90;;;;;;;-145.18;100.00;46650.63;5073296;28;20047;-73
2023/12/13 10:26:33;;;;;;;24.67;9.87;;;;;;;-145.18;100.00;46648.69;5079083;28;20093;-73
2023/12/13 10:29:00;;;;;;;29.73;9.50;;;;;;;-145.18;100.00;46650.63;5077946;28;20269;-73
2023/12/13 10:31:25;;;;;;;28.97;11.40;;;;;;;-145.18;100.00;46652.59;5075616;28;20032;-73
2023/12/13 10:33:51;;;;;;;27.37;10.43;;;;;;;-145.18;100.00;46650.63;5084651;28;20036;-74
2023/12/13 10:36:18;;;;;;;32.97;11.03;;;;;;;-145.18;100.00;46652.59;5077955;28;20032;-74
2023/12/13 10:38:47;;;;;;;23.80;10.43;;;;;;;-145.18;100.00;46652.59;5083965;28;20043;-73
2023/12/13 10:41:15;;;;;;;26.43;10.73;;;;;;;-145.18;100.00;46654.53;5075277;28;20042;-73
2023/12/13 10:43:41;;;;;;;31.20;11.57;;;;;;;-145.18;100.00;46652.59;5089753;28;20039;-74
2023/12/13 10:46:11;;;;;;;25.77;10.07;;;;;;;-145.18;100.00;46654.53;5079740;28;20397;-73
2023/12/13 10:48:37;;;;;;;30.57;11.17;;;;;;;-145.18;100.00;46654.53;5083042;28;20381;-73
2023/12/13 10:51:03;;;;;;;28.23;11.50;;;;;;;-145.18;100.00;46658.44;5072935;28;20594;-73
2023/12/13 10:53:33;;;;;;;25.83;11.40;;;;;;;-145.18;100.00;46668.22;5073419;28;20456;-73
2023/12/13 10:56:01;;;;;;;26.87;11.60;;;;;;;-145.18;100.00;46662.34;5082418;28;20388;-74